Time;durP1;ratioP1;P1;durP2;ratioP2;P2;SDS_P1;SDS_P2;PMS_P1;PMS_P2;Temp;Humidity;BMP_temperature;BMP_pressure;BME280_temperature;BME280_humidity;BME280_pressure;Samples;Min_cycle;Max_cycle;Signal;HPM_P1;HPM_P2
2022/05/04 00:01:30;;;;;;;17.20;14.67;;;;;;;10.16;87.99;99597.63;5090529;28;20736;-57
2022/05/04 00:03:56;;;;;;;22.55;20.20;;;;;;;10.17;88.52;99599.31;5089789;28;20497;-56
2022/05/04 00:06:23;;;;;;;19.33;17.23;;;;;;;10.21;88.60;99604.56;5090290;28;20205;-56
2022/05/04 00:08:50;;;;;;;22.23;18.23;;;;;;;10.19;89.01;99603.66;5090413;28;20203;-55
2022/05/04 00:11:17;;;;;;;21.00;18.70;;;;;;;10.16;89.63;99607.88;5090601;28;20191;-57
2022/05/04 00:13:45;;;;;;;19.17;17.10;;;;;;;10.06;89.31;99607.66;5090277;28;20576;-57
2022/05/04 00:16:12;;;;;;;22.23;17.30;;;;;;;9.96;89.67;99603.19;5090114;28;20647;-58
2022/05/04 00:18:39;;;;;;;19.07;16.90;;;;;;;9.82;89.83;99603.72;5090364;28;20205;-57
2022/05/04 00:21:07;;;;;;;21.73;16.40;;;;;;;9.67;89.76;99601.69;5090401;28;20551;-57
2022/05/04 00:23:34;;;;;;;19.40;16.60;;;;;;;9.63;89.83;99597.34;5090336;28;20691;-57
2022/05/04 00:26:01;;;;;;;17.40;15.33;;;;;;;9.39;90.05;99582.28;5089445;28;20217;-57
2022/05/04 00:28:29;;;;;;;20.23;15.13;;;;;;;9.34;90.45;99583.88;5090440;28;20263;-57
2022/05/04 00:30:57;;;;;;;18.63;15.77;;;;;;;9.46;90.55;99601.25;5090036;28;20728;-57
2022/05/04 00:33:24;;;;;;;16.73;15.03;;;;;;;9.43;90.44;99590.91;5090156;28;20276;-57
2022/05/04 00:35:50;;;;;;;17.67;15.17;;;;;;;9.34;90.06;99589.00;5090135;28;20194;-57
2022/05/04 00:38:17;;;;;;;16.27;14.40;;;;;;;9.32;90.23;99598.38;5090112;28;20195;-57
2022/05/04 00:40:45;;;;;;;19.40;15.33;;;;;;;9.37;90.22;99593.31;5089898;28;20206;-57
2022/05/04 00:43:23;;;;;;;17.57;14.87;;;;;;;9.40;89.56;99586.56;5090012;28;20201;-54
2022/05/04 00:45:50;;;;;;;19.57;15.23;;;;;;;9.42;89.49;99589.19;5078544;28;20227;-54
2022/05/04 00:48:19;;;;;;;17.57;14.43;;;;;;;9.43;89.34;99585.78;5070000;28;20203;-54
2022/05/04 00:50:48;;;;;;;16.43;13.17;;;;;;;9.37;89.28;99585.63;5088256;28;20198;-55
2022/05/04 00:53:15;;;;;;;18.43;13.07;;;;;;;9.36;89.38;99595.06;5089898;28;20229;-56
2022/05/04 00:55:42;;;;;;;14.90;12.93;;;;;;;9.37;89.37;99593.31;5088287;28;20269;-55
2022/05/04 01:00:54;;;;;;;14.30;12.80;;;;;;;9.46;89.58;99606.38;5088535;28;20209;-55
2022/05/04 01:03:22;;;;;;;16.67;14.77;;;;;;;9.50;89.30;99609.03;5089352;28;20206;-55
2022/05/04 01:05:49;;;;;;;15.97;13.63;;;;;;;9.54;89.09;99614.22;5087112;28;20199;-55
2022/05/04 01:08:16;;;;;;;15.13;13.03;;;;;;;9.57;89.08;99611.72;5090343;28;20202;-56
2022/05/04 01:10:43;;;;;;;15.60;12.30;;;;;;;9.56;88.88;99610.03;5093753;28;20202;-55
2022/05/04 01:13:10;;;;;;;15.33;12.90;;;;;;;9.55;88.69;99603.13;5093502;28;20194;-55
2022/05/04 01:15:37;;;;;;;15.27;13.47;;;;;;;9.57;88.21;99604.03;5093603;28;20194;-55
2022/05/04 01:18:04;;;;;;;15.63;13.13;;;;;;;9.41;88.29;99600.28;5091496;28;20199;-55
2022/05/04 01:20:33;;;;;;;17.40;15.70;;;;;;;9.51;88.54;99604.75;5091926;28;20440;-55
2022/05/04 01:23:01;;;;;;;15.00;13.43;;;;;;;9.52;87.79;99591.13;5092823;28;20199;-55
2022/05/04 01:25:28;;;;;;;16.53;14.07;;;;;;;9.56;87.30;99598.03;5090402;28;20203;-55
2022/05/04 01:27:55;;;;;;;20.23;12.87;;;;;;;9.47;87.25;99593.59;5092933;28;20190;-60
2022/05/04 01:30:22;;;;;;;14.97;13.33;;;;;;;9.50;87.54;99595.34;5092992;28;20194;-61
2022/05/04 01:32:49;;;;;;;13.07;11.67;;;;;;;9.50;86.94;99580.81;5093419;28;20210;-60
2022/05/04 01:35:17;;;;;;;16.60;12.97;;;;;;;9.52;87.01;99580.88;5093456;28;20198;-60
2022/05/04 01:37:43;;;;;;;14.53;12.33;;;;;;;9.48;87.29;99584.19;5093170;28;20264;-60
2022/05/04 01:40:12;;;;;;;15.07;12.40;;;;;;;9.37;87.02;99586.50;5093158;28;20209;-61
2022/05/04 01:42:38;;;;;;;14.47;12.70;;;;;;;9.39;86.95;99586.56;5093078;28;20588;-60
2022/05/04 01:45:07;;;;;;;11.53;10.33;;;;;;;9.40;86.81;99585.72;5092832;28;20222;-61
2022/05/04 01:47:34;;;;;;;13.03;11.70;;;;;;;9.39;87.00;99599.38;5093229;28;20194;-60
2022/05/04 01:50:01;;;;;;;15.63;11.33;;;;;;;9.40;87.20;99604.53;5093025;28;20191;-60
2022/05/04 01:52:28;;;;;;;16.13;11.90;;;;;;;9.47;87.22;99601.28;5093094;28;20199;-61
2022/05/04 01:54:54;;;;;;;16.20;12.70;;;;;;;9.52;86.35;99596.25;5092737;28;20198;-60
2022/05/04 01:57:23;;;;;;;14.77;12.60;;;;;;;9.49;86.25;99603.88;5093194;28;20209;-60
2022/05/04 01:59:49;;;;;;;17.83;13.27;;;;;;;9.48;86.59;99597.00;5093025;28;20200;-60
2022/05/04 02:02:16;;;;;;;16.90;12.93;;;;;;;9.49;86.92;99601.31;5093000;28;20224;-60
2022/05/04 02:04:43;;;;;;;16.37;13.83;;;;;;;9.56;87.15;99592.06;5092790;28;20743;-60
2022/05/04 02:07:11;;;;;;;13.97;12.47;;;;;;;9.55;86.76;99591.19;5092809;28;20210;-60
2022/05/04 02:09:38;;;;;;;14.93;11.57;;;;;;;9.59;86.33;99580.16;5092779;28;20202;-61
2022/05/04 02:12:06;;;;;;;12.03;10.77;;;;;;;9.56;86.38;99587.78;5092807;28;20222;-60
2022/05/04 02:14:34;;;;;;;12.33;11.03;;;;;;;9.64;86.27;99591.38;5092775;28;20210;-61
2022/05/04 02:17:02;;;;;;;12.77;11.37;;;;;;;9.63;85.74;99596.47;5092329;28;20230;-60
2022/05/04 02:19:28;;;;;;;13.00;10.67;;;;;;;9.61;85.39;99582.75;5092177;28;20596;-61
2022/05/04 02:21:55;;;;;;;14.03;10.13;;;;;;;9.64;85.25;99588.81;5092195;28;20195;-61
2022/05/04 02:24:22;;;;;;;9.67;8.70;;;;;;;9.65;84.66;99595.69;5092575;28;20226;-60
2022/05/04 02:26:49;;;;;;;10.10;9.10;;;;;;;9.59;84.87;99584.41;5092336;28;20226;-62
2022/05/04 02:29:16;;;;;;;9.47;8.57;;;;;;;9.58;84.82;99600.66;5092374;28;20275;-60
2022/05/04 02:31:44;;;;;;;9.03;8.20;;;;;;;9.59;84.25;99610.94;5092089;28;20214;-60
2022/05/04 02:34:11;;;;;;;10.73;8.73;;;;;;;9.57;84.25;99612.59;5092083;28;20255;-61
2022/05/04 02:39:22;;;;;;;10.30;8.70;;;;;;;9.60;84.28;99601.53;5092086;28;20193;-60
2022/05/04 02:41:51;;;;;;;11.80;10.07;;;;;;;9.60;84.09;99599.84;5092174;28;20209;-61
2022/05/04 02:44:18;;;;;;;10.20;8.87;;;;;;;9.60;83.53;99598.97;5091925;28;20209;-61
2022/05/04 02:46:48;;;;;;;8.37;7.53;;;;;;;9.56;83.72;99608.28;5091921;28;20249;-61
2022/05/04 02:49:15;;;;;;;9.23;8.33;;;;;;;9.49;83.60;99606.44;5091933;28;20198;-61
2022/05/04 02:51:42;;;;;;;9.20;8.13;;;;;;;9.48;83.63;99605.56;5091835;28;20294;-61
2022/05/04 02:54:09;;;;;;;8.10;7.30;;;;;;;9.42;83.72;99605.41;5091643;28;20197;-62
2022/05/04 02:56:36;;;;;;;8.97;8.07;;;;;;;9.45;84.04;99605.50;5091620;28;20286;-61
2022/05/04 02:59:03;;;;;;;9.23;8.33;;;;;;;9.48;84.13;99607.25;5083573;28;20214;-60
2022/05/04 03:04:16;;;;;;;9.57;8.53;;;;;;;9.56;83.54;99621.13;5085106;28;20329;-61
2022/05/04 03:06:43;;;;;;;10.47;8.63;;;;;;;9.59;83.96;99617.75;5091247;28;20223;-61
2022/05/04 03:09:11;;;;;;;10.63;9.53;;;;;;;9.59;83.77;99618.63;5091582;28;20250;-61
2022/05/04 03:11:57;;;;;;;9.93;9.03;;;;;;;9.61;84.07;99616.97;5091369;28;20251;-61
2022/05/04 03:14:25;;;;;;;12.57;9.37;;;;;;;9.63;84.06;99620.44;5091609;28;20198;-61
2022/05/04 03:16:52;;;;;;;9.83;8.83;;;;;;;9.60;84.52;99619.50;5091266;28;20596;-60
2022/05/04 03:19:21;;;;;;;10.13;9.13;;;;;;;9.63;84.33;99625.56;5091643;28;20200;-61
2022/05/04 03:21:48;;;;;;;11.07;9.53;;;;;;;9.65;84.42;99631.59;5091143;28;20202;-62
2022/05/04 03:24:15;;;;;;;11.33;10.13;;;;;;;9.65;83.93;99633.28;5091277;28;20195;-61
2022/05/04 03:26:42;;;;;;;10.97;9.20;;;;;;;9.67;83.51;99645.31;5091234;28;20252;-61
2022/05/04 03:29:09;;;;;;;14.07;9.60;;;;;;;9.70;83.64;99637.69;5090995;28;20199;-61
2022/05/04 03:31:37;;;;;;;10.83;9.73;;;;;;;9.62;83.20;99640.91;5090427;28;20290;-61
2022/05/04 03:34:05;;;;;;;14.27;12.77;;;;;;;9.61;83.73;99637.50;5090589;28;20436;-61
2022/05/04 03:36:35;;;;;;;11.80;10.67;;;;;;;9.66;83.84;99638.47;5091039;28;20191;-61
2022/05/04 03:39:02;;;;;;;17.63;11.77;;;;;;;9.55;83.23;99628.78;5090842;28;20273;-62
2022/05/04 03:41:29;;;;;;;13.40;10.97;;;;;;;9.60;83.46;99635.75;5091237;28;20199;-61
2022/05/04 03:43:56;;;;;;;12.70;10.70;;;;;;;9.59;82.25;99630.56;5090682;28;20205;-61
2022/05/04 03:46:24;;;;;;;14.83;10.47;;;;;;;9.63;81.88;99640.97;5090710;28;20601;-61
2022/05/04 03:48:52;;;;;;;12.70;10.77;;;;;;;9.64;82.39;99641.84;5090950;28;20210;-61
2022/05/04 03:51:20;;;;;;;15.10;10.10;;;;;;;9.65;81.88;99643.53;5090882;28;20199;-61
2022/05/04 03:53:48;;;;;;;13.70;12.13;;;;;;;9.62;81.70;99644.34;5090139;28;21312;-61
2022/05/04 03:56:15;;;;;;;14.00;11.20;;;;;;;9.70;81.63;99650.50;5090846;28;20199;-60
2022/05/04 03:58:43;;;;;;;14.63;10.23;;;;;;;9.71;80.99;99638.56;5090552;28;20194;-61
2022/05/04 04:01:11;;;;;;;13.93;11.07;;;;;;;9.76;80.77;99647.22;5090676;28;20581;-61
2022/05/04 04:03:38;;;;;;;12.43;10.30;;;;;;;9.79;80.92;99658.41;5090538;28;20195;-62
2022/05/04 04:06:05;;;;;;;17.33;10.60;;;;;;;9.85;80.54;99655.13;5090275;28;20230;-60
2022/05/04 04:08:32;;;;;;;13.70;10.03;;;;;;;9.92;80.70;99655.28;5090507;28;20253;-61
2022/05/04 04:11:00;;;;;;;11.30;9.93;;;;;;;10.02;80.23;99661.47;5090356;28;20285;-62
2022/05/04 04:13:27;;;;;;;13.70;10.07;;;;;;;10.06;79.61;99666.69;5090137;28;20194;-61
2022/05/04 04:15:55;;;;;;;13.63;9.83;;;;;;;10.07;79.57;99665.00;5090063;28;20267;-60
2022/05/04 04:18:23;;;;;;;10.20;9.10;;;;;;;10.08;79.03;99666.72;5089808;28;20712;-60
2022/05/04 04:23:35;;;;;;;10.37;8.77;;;;;;;9.82;79.31;99637.09;5090423;28;20170;-60
2022/05/04 04:26:05;;;;;;;13.00;9.87;;;;;;;9.92;79.55;99680.06;5089760;28;20725;-61
2022/05/04 04:28:33;;;;;;;10.90;9.43;;;;;;;9.96;79.33;99675.06;5090275;28;20202;-61
2022/05/04 04:31:00;;;;;;;19.87;9.67;;;;;;;9.94;79.36;99679.25;5090470;28;20191;-60
2022/05/04 04:33:27;;;;;;;10.87;9.77;;;;;;;9.87;79.59;99679.09;5090094;28;20213;-60
2022/05/04 04:35:54;;;;;;;12.80;9.30;;;;;;;9.95;79.28;99680.13;5090242;28;20190;-61
2022/05/04 04:38:21;;;;;;;12.13;9.80;;;;;;;10.03;79.30;99679.47;5087188;28;20201;-60
2022/05/04 04:40:48;;;;;;;13.00;10.47;;;;;;;10.06;78.98;99665.81;5082005;28;20565;-61
2022/05/04 04:43:17;;;;;;;10.43;9.33;;;;;;;10.08;78.93;99672.72;5091291;28;20669;-62
2022/05/04 04:45:45;;;;;;;11.10;8.60;;;;;;;10.21;78.80;99667.88;5092827;28;20226;-56
2022/05/04 04:48:12;;;;;;;11.57;10.03;;;;;;;10.20;78.81;99641.34;5094012;28;20267;-56
2022/05/04 04:50:38;;;;;;;12.95;9.02;;;;;;;10.52;77.64;99657.38;5093927;28;20429;-56
2022/05/04 04:53:06;;;;;;;14.57;8.10;;;;;;;10.66;76.78;99663.63;5093845;28;20191;-56
2022/05/04 04:55:32;;;;;;;11.43;7.83;;;;;;;10.84;76.27;99665.69;5094072;28;20199;-56
2022/05/04 04:57:59;;;;;;;10.00;8.40;;;;;;;11.02;75.73;99661.72;5093833;28;20194;-56
2022/05/04 05:00:27;;;;;;;10.23;8.57;;;;;;;11.12;75.24;99655.88;5094153;28;20256;-57
2022/05/04 05:02:55;;;;;;;10.53;8.23;;;;;;;11.27;73.62;99665.56;5093708;28;20202;-57
2022/05/04 05:05:22;;;;;;;11.13;8.43;;;;;;;11.32;73.39;99650.22;5093680;28;20202;-56
2022/05/04 05:07:49;;;;;;;9.47;8.17;;;;;;;11.48;73.17;99655.59;5093532;28;20199;-56
2022/05/04 05:10:16;;;;;;;10.87;8.83;;;;;;;11.63;72.93;99655.84;5093506;28;20194;-56
2022/05/04 05:12:42;;;;;;;9.40;8.50;;;;;;;11.74;72.24;99659.47;5093141;28;20252;-56
2022/05/04 05:17:56;;;;;;;13.30;10.43;;;;;;;12.11;71.87;99660.81;5092565;28;20525;-56
2022/05/04 05:20:23;;;;;;;12.27;8.07;;;;;;;12.31;69.89;99663.63;5093278;28;20592;-56
2022/05/04 05:22:49;;;;;;;11.40;8.40;;;;;;;12.50;69.67;99664.72;5092170;28;20195;-56
2022/05/04 05:25:16;;;;;;;9.63;8.17;;;;;;;12.66;68.54;99672.59;5080825;28;20257;-57
2022/05/04 05:27:43;;;;;;;10.13;8.00;;;;;;;12.62;67.64;99672.56;5072751;28;20230;-57
2022/05/04 05:30:12;;;;;;;14.30;7.33;;;;;;;12.70;67.94;99678.66;5077390;28;20202;-57
2022/05/04 05:32:39;;;;;;;9.93;7.43;;;;;;;12.83;67.66;99676.22;5093161;28;20584;-57
2022/05/04 05:35:09;;;;;;;10.63;7.90;;;;;;;12.98;67.48;99676.41;5093148;28;20205;-56
2022/05/04 05:37:36;;;;;;;15.10;9.37;;;;;;;13.14;68.00;99672.25;5092936;28;20206;-56
2022/05/04 05:40:03;;;;;;;12.90;8.70;;;;;;;13.14;68.96;99680.00;5093025;28;20195;-56
2022/05/04 05:42:30;;;;;;;10.33;8.37;;;;;;;13.33;68.95;99679.31;5093194;28;20195;-56
2022/05/04 05:44:57;;;;;;;11.13;8.43;;;;;;;13.30;69.28;99687.03;5093008;28;20198;-57
2022/05/04 05:47:24;;;;;;;13.73;9.10;;;;;;;13.30;70.17;99687.03;5092627;28;20229;-56
2022/05/04 05:49:50;;;;;;;12.33;9.10;;;;;;;13.44;70.21;99682.84;5092733;28;20200;-55
2022/05/04 05:52:19;;;;;;;14.05;8.55;;;;;;;13.60;69.47;99686.38;5092556;28;20436;-57
2022/05/04 05:54:46;;;;;;;8.40;7.43;;;;;;;13.57;68.25;99681.19;5091913;28;20218;-57
2022/05/04 05:57:12;;;;;;;8.30;7.23;;;;;;;13.69;67.55;99677.84;5092723;28;20252;-57
2022/05/04 05:59:39;;;;;;;7.80;7.00;;;;;;;13.72;66.81;99683.03;5092647;28;20250;-57
2022/05/04 06:02:06;;;;;;;9.73;6.73;;;;;;;13.65;65.80;99689.03;5091809;28;20667;-57
2022/05/04 06:04:33;;;;;;;7.47;6.77;;;;;;;13.58;65.06;99680.34;5092179;28;20201;-57
2022/05/04 06:07:00;;;;;;;7.20;6.50;;;;;;;13.63;65.14;99683.81;5092498;28;20241;-57
2022/05/04 06:09:28;;;;;;;10.80;6.97;;;;;;;13.59;65.51;99693.28;5092356;28;20191;-57
2022/05/04 06:11:56;;;;;;;8.27;6.80;;;;;;;13.66;65.78;99688.16;5092229;28;20195;-57
2022/05/04 06:14:23;;;;;;;8.77;6.30;;;;;;;13.68;65.20;99689.03;5092235;28;20198;-61
2022/05/04 06:16:50;;;;;;;8.37;6.90;;;;;;;13.77;65.41;99686.50;5092028;28;20225;-57
2022/05/04 06:19:17;;;;;;;7.50;6.33;;;;;;;13.88;65.92;99690.00;5092014;28;20199;-57
2022/05/04 06:21:44;;;;;;;10.67;7.50;;;;;;;13.97;65.78;99683.19;5092020;28;20200;-57
2022/05/04 06:24:11;;;;;;;13.50;7.67;;;;;;;13.96;66.13;99686.63;5092053;28;20191;-57
2022/05/04 06:26:39;;;;;;;11.35;7.97;;;;;;;13.94;65.31;99679.72;5090973;28;20447;-56
2022/05/04 06:29:06;;;;;;;9.00;7.87;;;;;;;13.98;65.95;99684.06;5091815;28;20194;-56
2022/05/04 06:34:17;;;;;;;8.83;7.87;;;;;;;14.12;66.23;99687.56;5097107;28;20284;-56
2022/05/04 06:36:44;;;;;;;9.07;7.37;;;;;;;14.08;66.11;99689.28;5091979;28;20201;-57
2022/05/04 06:39:12;;;;;;;10.97;7.73;;;;;;;14.22;66.25;99689.34;5091866;28;20200;-56
2022/05/04 06:41:41;;;;;;;8.83;8.03;;;;;;;14.34;66.74;99689.41;5091197;28;20665;-56
2022/05/04 06:44:08;;;;;;;10.60;8.53;;;;;;;14.41;66.45;99682.56;5091470;28;20736;-56
2022/05/04 06:46:41;;;;;;;8.00;7.13;;;;;;;14.48;65.58;99679.13;5091520;28;20667;-57
2022/05/04 06:49:10;;;;;;;9.97;8.03;;;;;;;14.47;65.75;99688.63;5090821;28;20216;-56
2022/05/04 06:51:37;;;;;;;11.93;9.07;;;;;;;14.63;65.81;99695.59;5091542;28;20206;-56
2022/05/04 06:54:04;;;;;;;9.37;8.47;;;;;;;14.77;64.98;99691.31;5101082;28;20218;-57
2022/05/04 06:56:31;;;;;;;9.53;8.60;;;;;;;14.82;65.01;99700.78;5091475;28;20191;-56
2022/05/04 06:58:59;;;;;;;8.87;7.97;;;;;;;15.05;64.23;99692.19;5091441;28;20201;-58
2022/05/04 07:01:27;;;;;;;9.23;8.33;;;;;;;15.08;63.56;99687.03;5091388;28;21037;-56
2022/05/04 07:03:55;;;;;;;10.57;8.10;;;;;;;15.26;62.50;99676.72;5091510;28;20296;-56
2022/05/04 07:06:22;;;;;;;10.30;8.43;;;;;;;15.38;62.20;99673.28;5091528;28;20313;-56
2022/05/04 07:08:48;;;;;;;9.80;8.17;;;;;;;15.45;62.66;99669.81;5111444;28;20200;-56
2022/05/04 07:11:15;;;;;;;9.03;8.10;;;;;;;15.63;62.20;99671.56;5111568;28;20198;-56
2022/05/04 07:13:43;;;;;;;8.87;7.97;;;;;;;15.74;61.71;99662.88;5111722;28;20218;-56
2022/05/04 07:16:11;;;;;;;11.23;8.27;;;;;;;15.86;61.28;99662.00;5111168;28;20229;-56
2022/05/04 07:18:38;;;;;;;7.73;6.97;;;;;;;15.94;59.85;99661.13;5111434;28;20572;-56
2022/05/04 07:21:05;;;;;;;11.30;8.45;;;;;;;15.99;60.34;99660.25;5110676;28;20438;-56
2022/05/04 07:23:32;;;;;;;9.83;7.60;;;;;;;16.22;60.60;99653.25;5111366;28;20193;-56
2022/05/04 07:25:59;;;;;;;8.37;6.80;;;;;;;16.24;59.04;99659.28;5111235;28;20197;-57
2022/05/04 07:28:26;;;;;;;6.37;5.77;;;;;;;16.17;57.58;99662.78;5111165;28;20268;-56
2022/05/04 07:30:53;;;;;;;6.17;5.57;;;;;;;16.09;57.47;99667.13;5110860;28;20292;-56
2022/05/04 07:33:21;;;;;;;8.20;6.30;;;;;;;16.06;58.63;99659.34;5110967;28;20209;-56
2022/05/04 07:35:48;;;;;;;10.30;7.63;;;;;;;16.31;59.27;99663.59;5094294;28;20267;-56
2022/05/04 07:38:15;;;;;;;9.17;6.77;;;;;;;16.48;59.24;99662.63;5089876;28;20205;-56
2022/05/04 07:43:26;;;;;;;8.70;7.13;;;;;;;16.89;59.00;99659.81;5088674;28;20310;-57
2022/05/04 07:45:54;;;;;;;9.87;7.80;;;;;;;16.79;59.17;99657.31;5090451;28;20678;-57
2022/05/04 07:48:23;;;;;;;8.63;7.70;;;;;;;17.03;58.67;99664.97;5090366;28;20218;-57
2022/05/04 07:50:49;;;;;;;8.77;7.80;;;;;;;16.93;58.90;99671.94;5090343;28;20586;-55
2022/05/04 07:53:16;;;;;;;11.00;7.03;;;;;;;16.96;58.28;99679.69;5089994;28;20195;-55
2022/05/04 07:55:43;;;;;;;8.43;7.03;;;;;;;16.77;58.25;99679.81;5090385;28;20206;-56
2022/05/04 07:58:10;;;;;;;8.07;6.30;;;;;;;16.74;57.27;99685.00;5089592;28;20601;-56
2022/05/04 08:06:07;;;;;;;10.13;7.00;;;;;;;16.90;57.70;99678.84;5090433;28;20193;-56
2022/05/04 08:08:34;;;;;;;8.23;6.70;;;;;;;17.03;57.47;99683.97;5090438;28;21004;-56
2022/05/04 08:11:01;;;;;;;8.30;6.03;;;;;;;16.82;56.85;99640.00;5090335;28;20315;-56
2022/05/04 08:13:28;;;;;;;6.70;6.00;;;;;;;17.09;57.01;99670.94;5090202;28;20248;-56
2022/05/04 08:15:55;;;;;;;7.63;6.00;;;;;;;17.08;57.14;99669.22;5090273;28;20284;-57
2022/05/04 08:18:25;;;;;;;7.23;5.83;;;;;;;17.28;57.09;99673.41;5089344;28;20191;-56
2022/05/04 08:20:51;;;;;;;11.03;5.70;;;;;;;17.39;56.57;99664.63;5089721;28;20206;-56
2022/05/04 08:23:18;;;;;;;6.67;5.83;;;;;;;17.38;56.39;99672.47;5089980;28;20546;-55
2022/05/04 08:25:46;;;;;;;6.87;6.10;;;;;;;17.46;56.67;99673.25;5089835;28;20665;-56
2022/05/04 08:28:13;;;;;;;7.13;6.43;;;;;;;17.51;56.20;99669.75;5089812;28;20309;-56
2022/05/04 08:30:40;;;;;;;6.23;5.57;;;;;;;17.75;55.63;99678.19;5089945;28;20298;-56
2022/05/04 08:33:06;;;;;;;7.67;6.30;;;;;;;17.76;54.73;99687.72;5090000;28;20197;-56
2022/05/04 08:35:35;;;;;;;11.77;5.80;;;;;;;17.69;54.57;99677.38;5089831;28;20202;-56
2022/05/04 08:38:01;;;;;;;7.63;6.43;;;;;;;17.74;55.00;99677.38;5089684;28;20636;-57
2022/05/04 08:40:29;;;;;;;5.03;4.50;;;;;;;17.76;54.85;99674.75;5089639;28;20191;-57
2022/05/04 08:43:00;;;;;;;5.67;4.40;;;;;;;17.82;53.14;99674.69;5090012;28;20194;-57
2022/05/04 08:45:27;;;;;;;7.03;4.90;;;;;;;17.96;53.18;99672.81;5089727;28;20190;-56
2022/05/04 08:47:55;;;;;;;6.03;4.97;;;;;;;18.07;52.60;99669.22;5089905;28;20226;-57
2022/05/04 08:50:23;;;;;;;5.73;4.50;;;;;;;18.03;52.25;99675.31;5089617;28;20262;-57
2022/05/04 08:52:54;;;;;;;5.90;4.73;;;;;;;18.02;52.09;99667.53;5089798;28;20255;-57
2022/05/04 08:55:22;;;;;;;4.77;4.37;;;;;;;18.03;49.69;99664.03;5089658;28;20328;-56
2022/05/04 08:57:50;;;;;;;4.27;3.77;;;;;;;17.99;48.70;99664.97;5089637;28;20672;-57
2022/05/04 09:00:18;;;;;;;5.53;4.30;;;;;;;18.11;50.10;99673.50;5089836;28;20205;-57
2022/05/04 09:02:45;;;;;;;6.37;4.43;;;;;;;18.24;51.60;99664.66;5089108;28;20206;-57
2022/05/04 09:05:17;;;;;;;5.90;4.30;;;;;;;18.22;49.72;99657.75;5089807;28;20738;-57
2022/05/04 09:07:44;;;;;;;4.87;4.40;;;;;;;18.32;50.89;99661.13;5089958;28;20235;-62
2022/05/04 09:10:21;;;;;;;6.20;5.00;;;;;;;18.39;50.47;99652.34;5089808;28;20550;-62
2022/05/04 09:12:49;;;;;;;4.73;4.00;;;;;;;18.45;48.00;99658.34;5089920;28;20206;-61
2022/05/04 09:15:21;;;;;;;4.43;3.22;;;;;;;18.38;44.65;99667.09;5088880;28;20448;-60
2022/05/04 09:17:56;;;;;;;2.70;2.50;;;;;;;18.44;43.70;99654.00;5089328;28;20307;-56
2022/05/04 09:20:47;;;;;;;3.30;3.00;;;;;;;18.48;44.38;99652.28;5089579;28;20200;-56
2022/05/04 09:23:17;;;;;;;3.53;3.23;;;;;;;18.62;44.81;99647.75;5089505;28;20203;-56
2022/05/04 09:25:45;;;;;;;3.87;3.40;;;;;;;18.69;46.17;99641.56;5089688;28;20272;-56
2022/05/04 09:28:15;;;;;;;5.00;3.03;;;;;;;18.83;43.45;99640.50;5089138;28;20230;-56
2022/05/04 09:30:44;;;;;;;2.90;2.67;;;;;;;18.75;42.30;99644.94;5090748;28;20198;-56
2022/05/04 09:33:12;;;;;;;3.97;2.60;;;;;;;18.71;43.46;99626.78;5093041;28;20213;-56
2022/05/04 09:35:41;;;;;;;2.93;2.73;;;;;;;18.80;41.27;99630.13;5092930;28;20543;-56
2022/05/04 09:46:39;;;;;;;5.70;3.13;;;;;;;19.10;40.67;99618.38;5092663;28;20225;-57
2022/05/04 09:49:16;;;;;;;2.83;2.63;;;;;;;19.08;41.53;99604.50;5092461;28;20726;-63
2022/05/04 09:51:48;;;;;;;2.90;2.60;;;;;;;19.18;38.65;99607.81;5092864;28;20672;-63
2022/05/04 09:54:22;;;;;;;4.03;3.23;;;;;;;19.29;39.65;99609.34;5092566;28;20238;-62
2022/05/04 09:56:52;;;;;;;3.87;3.20;;;;;;;19.29;41.30;99574.63;5092825;28;20209;-62
2022/05/04 09:59:22;;;;;;;5.73;3.17;;;;;;;19.64;40.64;99598.31;5092690;28;20194;-62
2022/05/04 10:01:50;;;;;;;5.13;3.47;;;;;;;19.66;38.87;99606.13;5092849;28;20275;-62
2022/05/04 10:04:17;;;;;;;4.50;2.57;;;;;;;19.58;37.87;99608.03;5092423;28;20203;-63
2022/05/04 10:06:45;;;;;;;2.50;2.30;;;;;;;19.56;35.79;99599.38;5092748;28;20191;-61
2022/05/04 10:09:12;;;;;;;4.50;3.33;;;;;;;19.57;36.90;99588.03;5092660;28;20226;-61
2022/05/04 10:11:39;;;;;;;3.37;3.07;;;;;;;19.69;36.95;99600.88;5092454;28;20208;-62
2022/05/04 10:14:10;;;;;;;2.77;2.57;;;;;;;19.80;35.20;99591.09;5092356;28;20636;-62
2022/05/04 10:16:44;;;;;;;3.40;3.03;;;;;;;19.86;35.32;99585.75;5091981;28;20287;-61
2022/05/04 10:19:18;;;;;;;2.60;2.40;;;;;;;19.90;33.98;99590.88;5092056;28;20683;-63
2022/05/04 10:21:49;;;;;;;4.83;3.20;;;;;;;19.81;34.82;99558.88;5092625;28;20229;-62
2022/05/04 10:24:18;;;;;;;3.17;2.73;;;;;;;19.95;36.04;99582.94;5092201;28;20214;-62
2022/05/04 10:26:46;;;;;;;3.17;2.97;;;;;;;19.97;36.65;99575.94;5091887;28;20203;-62
2022/05/04 10:32:28;;;;;;;3.53;2.80;;;;;;;20.38;34.28;99573.34;5091892;28;20240;-61
2022/05/04 10:35:10;;;;;;;3.17;2.90;;;;;;;20.46;33.79;99578.44;5091549;28;20199;-62
2022/05/04 10:37:52;;;;;;;3.03;2.70;;;;;;;20.45;32.31;99579.31;5091515;28;20187;-62
2022/05/04 10:40:24;;;;;;;2.73;2.50;;;;;;;20.52;33.15;99576.50;5091517;28;20202;-62
2022/05/04 10:42:56;;;;;;;5.60;2.93;;;;;;;20.39;33.32;99541.16;5091292;28;20195;-61
2022/05/04 10:45:25;;;;;;;3.90;2.90;;;;;;;20.69;34.12;99564.81;5092081;28;20187;-61
2022/05/04 10:47:52;;;;;;;5.13;2.80;;;;;;;20.76;31.96;99566.41;5091403;28;20221;-61
2022/05/04 10:50:19;;;;;;;4.30;3.30;;;;;;;20.86;31.86;99563.53;5091612;28;20203;-61
2022/05/04 10:52:50;;;;;;;10.32;4.95;;;;;;;20.89;33.00;99560.84;5091299;28;20440;-62
2022/05/04 10:55:18;;;;;;;3.00;2.80;;;;;;;21.03;32.56;99556.16;5089203;28;20222;-57
2022/05/04 10:57:45;;;;;;;3.20;3.00;;;;;;;21.12;32.50;99555.09;5089273;28;20191;-57
2022/05/04 11:00:12;;;;;;;3.50;3.20;;;;;;;21.24;31.99;99560.00;5090788;28;20187;-57
2022/05/04 11:02:49;;;;;;;6.93;3.23;;;;;;;21.12;31.37;99561.16;5090332;28;20191;-57
2022/05/04 11:05:16;;;;;;;3.77;3.30;;;;;;;21.13;31.79;99559.41;5087673;28;20615;-57
2022/05/04 11:07:47;;;;;;;3.60;3.30;;;;;;;21.17;31.04;99553.22;5090585;28;20276;-58
2022/05/04 11:10:15;;;;;;;4.30;4.00;;;;;;;21.22;31.75;99555.69;5090401;28;20309;-58
2022/05/04 11:12:43;;;;;;;3.90;3.60;;;;;;;21.15;31.23;99552.41;5090326;28;20734;-57
2022/05/04 11:15:12;;;;;;;3.70;3.40;;;;;;;21.21;31.70;99543.53;5090610;28;20202;-61
2022/05/04 11:17:39;;;;;;;4.37;3.87;;;;;;;21.29;31.93;99537.19;5087800;28;20257;-61
2022/05/04 11:20:13;;;;;;;4.80;4.17;;;;;;;21.07;32.45;99509.91;5088500;28;20241;-62
2022/05/04 11:22:41;;;;;;;5.03;3.63;;;;;;;21.32;33.33;99523.19;5087829;28;20196;-62
2022/05/04 11:25:10;;;;;;;5.30;4.80;;;;;;;21.41;32.41;99526.44;5090002;28;20191;-62
2022/05/04 11:27:37;;;;;;;4.27;3.70;;;;;;;21.56;32.93;99527.78;5089987;28;20218;-62
2022/05/04 11:30:05;;;;;;;4.90;4.50;;;;;;;21.71;31.78;99522.09;5090059;28;20187;-62
2022/05/04 11:32:33;;;;;;;3.67;3.30;;;;;;;21.85;31.49;99519.09;5085697;28;20202;-62
2022/05/04 11:35:00;;;;;;;3.50;3.20;;;;;;;21.86;31.19;99519.06;5070243;28;20249;-62
2022/05/04 11:37:31;;;;;;;4.10;3.70;;;;;;;21.76;31.92;99510.59;5068936;28;20196;-62
2022/05/04 11:40:09;;;;;;;4.40;4.00;;;;;;;21.89;31.50;99518.16;5069652;28;20246;-62
2022/05/04 11:42:36;;;;;;;4.37;3.37;;;;;;;22.02;32.26;99511.66;5070051;28;20344;-61
2022/05/04 11:45:03;;;;;;;5.73;3.40;;;;;;;22.01;31.11;99502.94;5061423;28;20211;-62
2022/05/04 11:47:30;;;;;;;4.97;3.20;;;;;;;22.03;31.26;99506.34;5069188;28;20191;-62
2022/05/04 11:49:57;;;;;;;4.60;4.00;;;;;;;21.81;31.95;99500.00;5070173;28;20219;-63
2022/05/04 11:52:25;;;;;;;3.53;3.23;;;;;;;21.71;32.04;99499.44;5080154;28;20205;-62
2022/05/04 11:54:53;;;;;;;5.47;4.40;;;;;;;21.71;32.07;99515.13;5070186;28;20207;-63
2022/05/04 11:57:20;;;;;;;4.53;3.03;;;;;;;21.73;31.77;99496.75;5078031;28;20209;-62
2022/05/04 11:59:47;;;;;;;3.53;3.20;;;;;;;21.92;32.04;99491.91;5087301;28;20205;-62
2022/05/04 12:02:14;;;;;;;4.87;3.80;;;;;;;22.18;32.94;99484.97;5090193;28;20210;-63
2022/05/04 12:04:42;;;;;;;5.17;4.07;;;;;;;22.40;32.42;99485.16;5090603;28;20205;-63
2022/05/04 12:07:09;;;;;;;6.23;4.10;;;;;;;22.54;31.62;99487.31;5082597;28;20726;-62
2022/05/04 12:09:37;;;;;;;4.40;4.00;;;;;;;22.74;31.88;99479.72;5084729;28;20699;-63